sensor_id;sensor_type;location;lat;lon;timestamp;P1;durP1;ratioP1;P2;durP2;ratioP2
18265;SDS011;9259;48.194;16.322;2023-08-01T00:01:45;5.07;;;2.00;;
18265;SDS011;9259;48.194;16.322;2023-08-01T00:04:13;3.25;;;1.92;;
18265;SDS011;9259;48.194;16.322;2023-08-01T00:06:42;3.22;;;1.90;;
18265;SDS011;9259;48.194;16.322;2023-08-01T00:09:10;2.40;;;1.65;;
18265;SDS011;9259;48.194;16.322;2023-08-01T00:11:39;4.90;;;2.15;;
18265;SDS011;9259;48.194;16.322;2023-08-01T00:14:07;3.88;;;1.88;;
18265;SDS011;9259;48.194;16.322;2023-08-01T00:16:36;4.82;;;1.80;;
18265;SDS011;9259;48.194;16.322;2023-08-01T00:19:05;5.82;;;2.17;;
18265;SDS011;9259;48.194;16.322;2023-08-01T00:21:35;5.65;;;2.05;;
18265;SDS011;9259;48.194;16.322;2023-08-01T00:24:04;5.47;;;1.95;;
18265;SDS011;9259;48.194;16.322;2023-08-01T00:26:36;3.15;;;1.70;;
18265;SDS011;9259;48.194;16.322;2023-08-01T00:29:07;3.00;;;1.50;;
18265;SDS011;9259;48.194;16.322;2023-08-01T00:31:37;3.33;;;1.90;;
18265;SDS011;9259;48.194;16.322;2023-08-01T00:34:07;4.88;;;1.83;;
18265;SDS011;9259;48.194;16.322;2023-08-01T00:36:35;4.18;;;2.55;;
18265;SDS011;9259;48.194;16.322;2023-08-01T00:39:03;6.95;;;1.50;;
18265;SDS011;9259;48.194;16.322;2023-08-01T00:41:31;5.80;;;1.50;;
18265;SDS011;9259;48.194;16.322;2023-08-01T00:43:59;3.67;;;1.95;;
18265;SDS011;9259;48.194;16.322;2023-08-01T00:46:32;5.05;;;1.67;;
18265;SDS011;9259;48.194;16.322;2023-08-01T00:49:01;6.75;;;2.15;;
18265;SDS011;9259;48.194;16.322;2023-08-01T00:51:31;3.47;;;1.67;;
18265;SDS011;9259;48.194;16.322;2023-08-01T00:54:01;4.97;;;2.17;;
18265;SDS011;9259;48.194;16.322;2023-08-01T00:56:33;4.53;;;1.85;;
18265;SDS011;9259;48.194;16.322;2023-08-01T00:59:02;2.60;;;1.40;;
18265;SDS011;9259;48.194;16.322;2023-08-01T01:01:34;3.78;;;1.95;;
18265;SDS011;9259;48.194;16.322;2023-08-01T01:04:03;3.83;;;1.60;;
18265;SDS011;9259;48.194;16.322;2023-08-01T01:06:34;4.97;;;1.80;;
18265;SDS011;9259;48.194;16.322;2023-08-01T01:09:14;3.80;;;1.70;;
18265;SDS011;9259;48.194;16.322;2023-08-01T01:11:43;4.50;;;1.65;;
18265;SDS011;9259;48.194;16.322;2023-08-01T01:14:11;2.97;;;1.65;;
18265;SDS011;9259;48.194;16.322;2023-08-01T01:16:41;3.88;;;1.83;;
18265;SDS011;9259;48.194;16.322;2023-08-01T01:19:09;3.25;;;1.77;;
18265;SDS011;9259;48.194;16.322;2023-08-01T01:21:39;2.88;;;1.98;;
18265;SDS011;9259;48.194;16.322;2023-08-01T01:24:09;3.55;;;1.80;;
18265;SDS011;9259;48.194;16.322;2023-08-01T01:26:38;3.33;;;1.90;;
18265;SDS011;9259;48.194;16.322;2023-08-01T01:29:07;6.05;;;1.60;;
18265;SDS011;9259;48.194;16.322;2023-08-01T01:31:35;3.33;;;1.73;;
18265;SDS011;9259;48.194;16.322;2023-08-01T01:34:04;4.05;;;1.60;;
18265;SDS011;9259;48.194;16.322;2023-08-01T01:36:32;3.35;;;2.13;;
18265;SDS011;9259;48.194;16.322;2023-08-01T01:39:01;3.22;;;1.63;;
18265;SDS011;9259;48.194;16.322;2023-08-01T01:41:30;3.65;;;1.98;;
18265;SDS011;9259;48.194;16.322;2023-08-01T01:43:58;3.67;;;1.70;;
18265;SDS011;9259;48.194;16.322;2023-08-01T01:46:25;3.53;;;1.50;;
18265;SDS011;9259;48.194;16.322;2023-08-01T01:48:54;3.72;;;1.58;;
18265;SDS011;9259;48.194;16.322;2023-08-01T01:51:24;2.83;;;1.50;;
18265;SDS011;9259;48.194;16.322;2023-08-01T01:53:52;2.78;;;1.60;;
18265;SDS011;9259;48.194;16.322;2023-08-01T01:56:22;5.00;;;1.48;;
18265;SDS011;9259;48.194;16.322;2023-08-01T01:58:50;3.03;;;1.67;;
18265;SDS011;9259;48.194;16.322;2023-08-01T02:01:18;2.75;;;1.70;;
18265;SDS011;9259;48.194;16.322;2023-08-01T02:03:46;3.22;;;1.60;;
18265;SDS011;9259;48.194;16.322;2023-08-01T02:06:14;3.53;;;1.85;;
18265;SDS011;9259;48.194;16.322;2023-08-01T02:08:42;2.35;;;1.48;;
18265;SDS011;9259;48.194;16.322;2023-08-01T02:11:10;3.55;;;1.75;;
18265;SDS011;9259;48.194;16.322;2023-08-01T02:13:39;2.95;;;1.65;;
18265;SDS011;9259;48.194;16.322;2023-08-01T02:16:07;3.67;;;1.73;;
18265;SDS011;9259;48.194;16.322;2023-08-01T02:18:36;3.50;;;1.80;;
18265;SDS011;9259;48.194;16.322;2023-08-01T02:21:04;5.07;;;1.52;;
18265;SDS011;9259;48.194;16.322;2023-08-01T02:23:32;3.92;;;1.92;;
18265;SDS011;9259;48.194;16.322;2023-08-01T02:26:03;2.78;;;1.30;;
18265;SDS011;9259;48.194;16.322;2023-08-01T02:28:33;3.25;;;1.75;;
18265;SDS011;9259;48.194;16.322;2023-08-01T02:31:02;3.92;;;1.70;;
18265;SDS011;9259;48.194;16.322;2023-08-01T02:33:30;2.38;;;1.40;;
18265;SDS011;9259;48.194;16.322;2023-08-01T02:35:58;4.38;;;1.70;;
18265;SDS011;9259;48.194;16.322;2023-08-01T02:38:26;3.88;;;1.27;;
18265;SDS011;9259;48.194;16.322;2023-08-01T02:40:54;3.42;;;1.58;;
18265;SDS011;9259;48.194;16.322;2023-08-01T02:43:22;3.40;;;1.73;;
18265;SDS011;9259;48.194;16.322;2023-08-01T02:45:50;3.08;;;1.67;;
18265;SDS011;9259;48.194;16.322;2023-08-01T02:48:19;2.78;;;1.63;;
18265;SDS011;9259;48.194;16.322;2023-08-01T02:50:47;3.03;;;1.45;;
18265;SDS011;9259;48.194;16.322;2023-08-01T02:53:15;5.47;;;2.00;;
18265;SDS011;9259;48.194;16.322;2023-08-01T02:55:44;3.53;;;1.70;;
18265;SDS011;9259;48.194;16.322;2023-08-01T02:58:12;2.85;;;1.50;;
18265;SDS011;9259;48.194;16.322;2023-08-01T03:00:41;2.53;;;1.25;;
18265;SDS011;9259;48.194;16.322;2023-08-01T03:03:09;4.20;;;1.48;;
18265;SDS011;9259;48.194;16.322;2023-08-01T03:05:38;3.20;;;1.55;;
18265;SDS011;9259;48.194;16.322;2023-08-01T03:08:06;3.10;;;1.40;;
18265;SDS011;9259;48.194;16.322;2023-08-01T03:10:35;2.15;;;1.38;;
18265;SDS011;9259;48.194;16.322;2023-08-01T03:13:03;2.90;;;1.40;;
18265;SDS011;9259;48.194;16.322;2023-08-01T03:15:31;3.17;;;1.70;;
18265;SDS011;9259;48.194;16.322;2023-08-01T03:17:59;2.35;;;1.48;;
18265;SDS011;9259;48.194;16.322;2023-08-01T03:20:27;3.55;;;1.70;;
18265;SDS011;9259;48.194;16.322;2023-08-01T03:22:56;3.58;;;1.70;;
18265;SDS011;9259;48.194;16.322;2023-08-01T03:25:24;4.57;;;1.55;;
18265;SDS011;9259;48.194;16.322;2023-08-01T03:27:52;2.58;;;1.52;;
18265;SDS011;9259;48.194;16.322;2023-08-01T03:30:21;5.43;;;2.00;;
18265;SDS011;9259;48.194;16.322;2023-08-01T03:32:49;5.00;;;1.83;;
18265;SDS011;9259;48.194;16.322;2023-08-01T03:35:17;4.80;;;1.60;;
18265;SDS011;9259;48.194;16.322;2023-08-01T03:37:45;3.47;;;1.70;;
18265;SDS011;9259;48.194;16.322;2023-08-01T03:40:14;6.05;;;1.73;;
18265;SDS011;9259;48.194;16.322;2023-08-01T03:42:43;8.40;;;2.10;;
18265;SDS011;9259;48.194;16.322;2023-08-01T03:45:11;5.03;;;1.70;;
18265;SDS011;9259;48.194;16.322;2023-08-01T03:47:39;3.05;;;1.70;;
18265;SDS011;9259;48.194;16.322;2023-08-01T03:50:07;2.85;;;1.60;;
18265;SDS011;9259;48.194;16.322;2023-08-01T03:52:36;2.97;;;1.40;;
18265;SDS011;9259;48.194;16.322;2023-08-01T03:55:04;3.97;;;1.52;;
18265;SDS011;9259;48.194;16.322;2023-08-01T03:57:34;3.33;;;1.50;;
18265;SDS011;9259;48.194;16.322;2023-08-01T04:00:04;2.42;;;1.63;;
18265;SDS011;9259;48.194;16.322;2023-08-01T04:02:39;8.43;;;1.60;;
18265;SDS011;9259;48.194;16.322;2023-08-01T04:05:08;4.72;;;1.42;;
18265;SDS011;9259;48.194;16.322;2023-08-01T04:07:36;3.50;;;1.88;;
18265;SDS011;9259;48.194;16.322;2023-08-01T04:10:05;1.75;;;1.25;;
18265;SDS011;9259;48.194;16.322;2023-08-01T04:12:35;3.33;;;1.45;;
18265;SDS011;9259;48.194;16.322;2023-08-01T04:15:04;4.35;;;1.75;;
18265;SDS011;9259;48.194;16.322;2023-08-01T04:17:32;5.30;;;1.77;;
18265;SDS011;9259;48.194;16.322;2023-08-01T04:20:00;5.97;;;2.00;;
18265;SDS011;9259;48.194;16.322;2023-08-01T04:22:28;4.60;;;1.70;;
18265;SDS011;9259;48.194;16.322;2023-08-01T04:24:56;4.63;;;2.03;;
18265;SDS011;9259;48.194;16.322;2023-08-01T04:27:25;3.05;;;1.65;;
18265;SDS011;9259;48.194;16.322;2023-08-01T04:29:54;3.42;;;1.48;;
18265;SDS011;9259;48.194;16.322;2023-08-01T04:32:22;5.18;;;1.88;;
18265;SDS011;9259;48.194;16.322;2023-08-01T04:34:50;3.28;;;1.60;;
18265;SDS011;9259;48.194;16.322;2023-08-01T04:37:19;3.78;;;1.77;;
18265;SDS011;9259;48.194;16.322;2023-08-01T04:39:48;2.33;;;1.70;;
18265;SDS011;9259;48.194;16.322;2023-08-01T04:42:16;4.40;;;1.85;;
18265;SDS011;9259;48.194;16.322;2023-08-01T04:44:45;3.10;;;1.95;;
18265;SDS011;9259;48.194;16.322;2023-08-01T04:47:14;4.80;;;1.55;;
18265;SDS011;9259;48.194;16.322;2023-08-01T04:49:42;3.85;;;2.00;;
18265;SDS011;9259;48.194;16.322;2023-08-01T04:52:10;8.02;;;2.13;;
18265;SDS011;9259;48.194;16.322;2023-08-01T04:54:38;5.55;;;1.98;;
18265;SDS011;9259;48.194;16.322;2023-08-01T04:57:06;10.60;;;2.33;;
18265;SDS011;9259;48.194;16.322;2023-08-01T04:59:34;6.10;;;2.03;;
18265;SDS011;9259;48.194;16.322;2023-08-01T05:02:02;3.50;;;2.13;;
18265;SDS011;9259;48.194;16.322;2023-08-01T05:04:32;6.20;;;2.47;;
18265;SDS011;9259;48.194;16.322;2023-08-01T05:07:00;5.57;;;2.33;;
18265;SDS011;9259;48.194;16.322;2023-08-01T05:09:28;7.60;;;3.30;;
18265;SDS011;9259;48.194;16.322;2023-08-01T05:11:56;6.60;;;2.60;;
18265;SDS011;9259;48.194;16.322;2023-08-01T05:14:24;5.65;;;2.83;;
18265;SDS011;9259;48.194;16.322;2023-08-01T05:16:52;8.88;;;3.33;;
18265;SDS011;9259;48.194;16.322;2023-08-01T05:19:20;7.53;;;2.83;;
18265;SDS011;9259;48.194;16.322;2023-08-01T05:21:50;5.55;;;2.25;;
18265;SDS011;9259;48.194;16.322;2023-08-01T05:24:18;5.03;;;2.65;;
18265;SDS011;9259;48.194;16.322;2023-08-01T05:26:46;5.10;;;2.67;;
18265;SDS011;9259;48.194;16.322;2023-08-01T05:29:14;4.80;;;2.75;;
18265;SDS011;9259;48.194;16.322;2023-08-01T05:31:42;6.35;;;2.80;;
18265;SDS011;9259;48.194;16.322;2023-08-01T05:34:10;4.93;;;2.80;;
18265;SDS011;9259;48.194;16.322;2023-08-01T05:36:38;5.50;;;2.53;;
18265;SDS011;9259;48.194;16.322;2023-08-01T05:39:07;7.00;;;2.85;;
18265;SDS011;9259;48.194;16.322;2023-08-01T05:41:36;7.95;;;3.35;;
18265;SDS011;9259;48.194;16.322;2023-08-01T05:44:04;6.35;;;2.58;;
18265;SDS011;9259;48.194;16.322;2023-08-01T05:46:32;2.83;;;1.80;;
18265;SDS011;9259;48.194;16.322;2023-08-01T05:49:00;4.75;;;2.00;;
18265;SDS011;9259;48.194;16.322;2023-08-01T05:51:28;5.45;;;1.90;;
18265;SDS011;9259;48.194;16.322;2023-08-01T05:53:56;3.53;;;1.77;;
18265;SDS011;9259;48.194;16.322;2023-08-01T05:56:25;7.88;;;2.30;;
18265;SDS011;9259;48.194;16.322;2023-08-01T05:58:53;4.57;;;1.92;;
18265;SDS011;9259;48.194;16.322;2023-08-01T06:01:21;11.27;;;2.50;;
18265;SDS011;9259;48.194;16.322;2023-08-01T06:03:50;5.43;;;2.10;;
18265;SDS011;9259;48.194;16.322;2023-08-01T06:06:18;6.10;;;2.40;;
18265;SDS011;9259;48.194;16.322;2023-08-01T06:08:46;3.95;;;2.25;;
18265;SDS011;9259;48.194;16.322;2023-08-01T06:11:14;6.88;;;2.20;;
18265;SDS011;9259;48.194;16.322;2023-08-01T06:13:44;6.72;;;2.80;;
18265;SDS011;9259;48.194;16.322;2023-08-01T06:16:12;4.75;;;2.42;;
18265;SDS011;9259;48.194;16.322;2023-08-01T06:18:40;4.32;;;2.25;;
18265;SDS011;9259;48.194;16.322;2023-08-01T06:21:08;6.47;;;2.90;;
18265;SDS011;9259;48.194;16.322;2023-08-01T06:23:36;4.43;;;2.53;;
18265;SDS011;9259;48.194;16.322;2023-08-01T06:26:04;14.93;;;2.50;;
18265;SDS011;9259;48.194;16.322;2023-08-01T06:28:32;6.97;;;2.92;;
18265;SDS011;9259;48.194;16.322;2023-08-01T06:31:01;6.32;;;2.50;;
18265;SDS011;9259;48.194;16.322;2023-08-01T06:33:29;4.65;;;2.42;;
18265;SDS011;9259;48.194;16.322;2023-08-01T06:35:57;7.15;;;2.97;;
18265;SDS011;9259;48.194;16.322;2023-08-01T06:38:25;6.35;;;2.90;;
18265;SDS011;9259;48.194;16.322;2023-08-01T06:40:53;8.40;;;2.53;;
18265;SDS011;9259;48.194;16.322;2023-08-01T06:43:21;8.63;;;2.60;;
18265;SDS011;9259;48.194;16.322;2023-08-01T06:45:50;7.32;;;2.47;;
18265;SDS011;9259;48.194;16.322;2023-08-01T06:48:20;4.63;;;2.33;;
18265;SDS011;9259;48.194;16.322;2023-08-01T06:50:48;6.75;;;2.53;;
18265;SDS011;9259;48.194;16.322;2023-08-01T06:53:16;11.25;;;2.60;;
18265;SDS011;9259;48.194;16.322;2023-08-01T06:55:44;7.53;;;2.70;;
18265;SDS011;9259;48.194;16.322;2023-08-01T06:58:12;7.38;;;2.55;;
18265;SDS011;9259;48.194;16.322;2023-08-01T07:00:40;8.13;;;2.20;;
18265;SDS011;9259;48.194;16.322;2023-08-01T07:03:08;5.43;;;2.47;;
18265;SDS011;9259;48.194;16.322;2023-08-01T07:05:38;7.20;;;2.30;;
18265;SDS011;9259;48.194;16.322;2023-08-01T07:08:06;5.40;;;2.65;;
18265;SDS011;9259;48.194;16.322;2023-08-01T07:10:34;3.13;;;1.95;;
18265;SDS011;9259;48.194;16.322;2023-08-01T07:13:02;4.07;;;2.10;;
18265;SDS011;9259;48.194;16.322;2023-08-01T07:15:31;3.55;;;1.95;;
18265;SDS011;9259;48.194;16.322;2023-08-01T07:17:59;3.85;;;1.80;;
18265;SDS011;9259;48.194;16.322;2023-08-01T07:20:27;6.15;;;2.08;;
18265;SDS011;9259;48.194;16.322;2023-08-01T07:22:56;4.13;;;1.83;;
18265;SDS011;9259;48.194;16.322;2023-08-01T07:25:24;4.47;;;1.80;;
18265;SDS011;9259;48.194;16.322;2023-08-01T07:27:52;5.93;;;2.03;;
18265;SDS011;9259;48.194;16.322;2023-08-01T07:30:20;5.85;;;2.35;;
18265;SDS011;9259;48.194;16.322;2023-08-01T07:32:48;4.68;;;2.13;;
18265;SDS011;9259;48.194;16.322;2023-08-01T07:35:17;4.97;;;2.30;;
18265;SDS011;9259;48.194;16.322;2023-08-01T07:37:45;4.68;;;2.22;;
18265;SDS011;9259;48.194;16.322;2023-08-01T07:40:14;4.60;;;2.03;;
18265;SDS011;9259;48.194;16.322;2023-08-01T07:42:42;7.53;;;2.00;;
18265;SDS011;9259;48.194;16.322;2023-08-01T07:45:11;4.32;;;1.80;;
18265;SDS011;9259;48.194;16.322;2023-08-01T07:47:40;2.85;;;1.70;;
18265;SDS011;9259;48.194;16.322;2023-08-01T07:50:08;3.78;;;1.77;;
18265;SDS011;9259;48.194;16.322;2023-08-01T07:52:36;4.55;;;1.73;;
18265;SDS011;9259;48.194;16.322;2023-08-01T07:55:05;3.90;;;2.00;;
18265;SDS011;9259;48.194;16.322;2023-08-01T07:57:35;7.80;;;2.47;;
18265;SDS011;9259;48.194;16.322;2023-08-01T08:00:03;5.38;;;2.33;;
18265;SDS011;9259;48.194;16.322;2023-08-01T08:02:32;5.45;;;2.25;;
18265;SDS011;9259;48.194;16.322;2023-08-01T08:05:00;8.10;;;2.60;;
18265;SDS011;9259;48.194;16.322;2023-08-01T08:07:28;9.30;;;2.80;;
18265;SDS011;9259;48.194;16.322;2023-08-01T08:09:56;5.00;;;2.33;;
18265;SDS011;9259;48.194;16.322;2023-08-01T08:12:24;4.38;;;2.20;;
18265;SDS011;9259;48.194;16.322;2023-08-01T08:14:54;5.13;;;2.10;;
18265;SDS011;9259;48.194;16.322;2023-08-01T08:17:22;7.05;;;2.58;;
18265;SDS011;9259;48.194;16.322;2023-08-01T08:19:50;4.75;;;2.47;;
18265;SDS011;9259;48.194;16.322;2023-08-01T08:22:18;9.65;;;2.78;;
18265;SDS011;9259;48.194;16.322;2023-08-01T08:24:46;7.40;;;2.83;;
18265;SDS011;9259;48.194;16.322;2023-08-01T08:27:14;4.05;;;2.80;;
18265;SDS011;9259;48.194;16.322;2023-08-01T08:29:42;5.32;;;2.55;;
18265;SDS011;9259;48.194;16.322;2023-08-01T08:32:12;7.43;;;3.38;;
18265;SDS011;9259;48.194;16.322;2023-08-01T08:34:40;6.75;;;2.83;;
18265;SDS011;9259;48.194;16.322;2023-08-01T08:37:08;4.82;;;2.65;;
18265;SDS011;9259;48.194;16.322;2023-08-01T08:39:36;7.25;;;2.78;;
18265;SDS011;9259;48.194;16.322;2023-08-01T08:42:04;9.38;;;2.65;;
18265;SDS011;9259;48.194;16.322;2023-08-01T08:44:33;6.63;;;2.40;;
18265;SDS011;9259;48.194;16.322;2023-08-01T08:47:05;4.75;;;2.10;;
18265;SDS011;9259;48.194;16.322;2023-08-01T08:49:35;5.38;;;2.60;;
18265;SDS011;9259;48.194;16.322;2023-08-01T08:52:04;5.32;;;2.15;;
18265;SDS011;9259;48.194;16.322;2023-08-01T08:54:33;5.38;;;2.28;;
18265;SDS011;9259;48.194;16.322;2023-08-01T08:57:01;4.85;;;2.08;;
18265;SDS011;9259;48.194;16.322;2023-08-01T08:59:32;5.38;;;2.22;;
18265;SDS011;9259;48.194;16.322;2023-08-01T09:02:01;3.50;;;2.20;;
18265;SDS011;9259;48.194;16.322;2023-08-01T09:04:30;6.20;;;2.10;;
18265;SDS011;9259;48.194;16.322;2023-08-01T09:07:01;4.38;;;2.10;;
18265;SDS011;9259;48.194;16.322;2023-08-01T09:09:30;8.40;;;2.88;;
18265;SDS011;9259;48.194;16.322;2023-08-01T09:11:58;6.95;;;2.33;;
18265;SDS011;9259;48.194;16.322;2023-08-01T09:14:26;5.13;;;2.80;;
18265;SDS011;9259;48.194;16.322;2023-08-01T09:16:55;4.70;;;2.17;;
18265;SDS011;9259;48.194;16.322;2023-08-01T09:19:31;6.43;;;2.50;;
18265;SDS011;9259;48.194;16.322;2023-08-01T09:22:01;7.85;;;2.78;;
18265;SDS011;9259;48.194;16.322;2023-08-01T09:24:29;4.47;;;2.17;;
18265;SDS011;9259;48.194;16.322;2023-08-01T09:27:01;4.25;;;2.00;;
18265;SDS011;9259;48.194;16.322;2023-08-01T09:29:31;2.38;;;1.65;;
18265;SDS011;9259;48.194;16.322;2023-08-01T09:31:59;5.45;;;1.80;;
18265;SDS011;9259;48.194;16.322;2023-08-01T09:34:37;3.03;;;1.70;;
18265;SDS011;9259;48.194;16.322;2023-08-01T09:37:07;5.90;;;1.90;;
18265;SDS011;9259;48.194;16.322;2023-08-01T09:39:35;3.67;;;1.80;;
18265;SDS011;9259;48.194;16.322;2023-08-01T09:42:03;4.38;;;1.63;;
18265;SDS011;9259;48.194;16.322;2023-08-01T09:44:31;4.50;;;1.98;;
18265;SDS011;9259;48.194;16.322;2023-08-01T09:47:02;4.57;;;1.75;;
18265;SDS011;9259;48.194;16.322;2023-08-01T09:49:32;3.65;;;1.52;;
18265;SDS011;9259;48.194;16.322;2023-08-01T09:52:02;3.22;;;1.40;;
18265;SDS011;9259;48.194;16.322;2023-08-01T09:54:32;3.20;;;1.77;;
18265;SDS011;9259;48.194;16.322;2023-08-01T09:57:00;4.38;;;2.00;;
18265;SDS011;9259;48.194;16.322;2023-08-01T09:59:32;5.57;;;2.20;;
18265;SDS011;9259;48.194;16.322;2023-08-01T10:02:00;4.13;;;2.00;;
18265;SDS011;9259;48.194;16.322;2023-08-01T10:04:29;4.65;;;2.00;;
18265;SDS011;9259;48.194;16.322;2023-08-01T10:06:59;5.13;;;2.38;;
18265;SDS011;9259;48.194;16.322;2023-08-01T10:09:36;3.83;;;2.00;;
18265;SDS011;9259;48.194;16.322;2023-08-01T10:12:05;8.10;;;2.55;;
18265;SDS011;9259;48.194;16.322;2023-08-01T10:14:34;4.63;;;1.88;;
18265;SDS011;9259;48.194;16.322;2023-08-01T10:17:03;4.30;;;2.50;;
18265;SDS011;9259;48.194;16.322;2023-08-01T10:19:32;5.78;;;2.67;;
18265;SDS011;9259;48.194;16.322;2023-08-01T10:22:00;5.93;;;2.30;;
18265;SDS011;9259;48.194;16.322;2023-08-01T10:24:29;4.72;;;2.60;;
18265;SDS011;9259;48.194;16.322;2023-08-01T10:26:58;7.18;;;2.60;;
18265;SDS011;9259;48.194;16.322;2023-08-01T10:29:38;5.32;;;2.30;;
18265;SDS011;9259;48.194;16.322;2023-08-01T10:32:06;10.95;;;2.65;;
18265;SDS011;9259;48.194;16.322;2023-08-01T10:34:34;4.05;;;2.35;;
18265;SDS011;9259;48.194;16.322;2023-08-01T10:37:03;4.43;;;2.70;;
18265;SDS011;9259;48.194;16.322;2023-08-01T10:39:31;6.20;;;2.45;;
18265;SDS011;9259;48.194;16.322;2023-08-01T10:42:01;4.18;;;2.45;;
18265;SDS011;9259;48.194;16.322;2023-08-01T10:44:31;4.60;;;2.70;;
18265;SDS011;9259;48.194;16.322;2023-08-01T10:47:01;4.25;;;2.30;;
18265;SDS011;9259;48.194;16.322;2023-08-01T10:49:33;5.90;;;2.50;;
18265;SDS011;9259;48.194;16.322;2023-08-01T10:52:03;4.47;;;2.53;;
18265;SDS011;9259;48.194;16.322;2023-08-01T10:54:42;4.88;;;2.42;;
18265;SDS011;9259;48.194;16.322;2023-08-01T10:57:16;7.57;;;2.75;;
18265;SDS011;9259;48.194;16.322;2023-08-01T10:59:44;4.72;;;2.60;;
18265;SDS011;9259;48.194;16.322;2023-08-01T11:02:19;5.55;;;2.92;;
18265;SDS011;9259;48.194;16.322;2023-08-01T11:04:57;6.65;;;2.53;;
18265;SDS011;9259;48.194;16.322;2023-08-01T11:07:26;5.43;;;3.10;;
18265;SDS011;9259;48.194;16.322;2023-08-01T11:10:02;9.63;;;3.13;;
18265;SDS011;9259;48.194;16.322;2023-08-01T11:12:34;8.05;;;3.05;;
18265;SDS011;9259;48.194;16.322;2023-08-01T11:15:03;8.43;;;3.63;;
18265;SDS011;9259;48.194;16.322;2023-08-01T11:17:34;5.55;;;3.13;;
18265;SDS011;9259;48.194;16.322;2023-08-01T11:20:03;8.85;;;4.07;;
18265;SDS011;9259;48.194;16.322;2023-08-01T11:22:33;6.78;;;2.78;;
18265;SDS011;9259;48.194;16.322;2023-08-01T11:25:01;6.47;;;3.50;;
18265;SDS011;9259;48.194;16.322;2023-08-01T11:27:29;11.40;;;4.15;;
18265;SDS011;9259;48.194;16.322;2023-08-01T11:29:59;7.93;;;4.30;;
18265;SDS011;9259;48.194;16.322;2023-08-01T11:32:33;10.85;;;4.65;;
18265;SDS011;9259;48.194;16.322;2023-08-01T11:35:01;10.05;;;4.80;;
18265;SDS011;9259;48.194;16.322;2023-08-01T11:37:30;10.73;;;4.22;;
18265;SDS011;9259;48.194;16.322;2023-08-01T11:39:58;8.45;;;4.28;;
18265;SDS011;9259;48.194;16.322;2023-08-01T11:42:30;9.07;;;4.75;;
18265;SDS011;9259;48.194;16.322;2023-08-01T11:45:10;9.65;;;4.65;;
18265;SDS011;9259;48.194;16.322;2023-08-01T11:47:44;9.23;;;4.35;;
18265;SDS011;9259;48.194;16.322;2023-08-01T11:50:12;8.32;;;4.07;;
18265;SDS011;9259;48.194;16.322;2023-08-01T11:52:41;9.88;;;3.88;;
18265;SDS011;9259;48.194;16.322;2023-08-01T11:55:18;6.32;;;3.40;;
18265;SDS011;9259;48.194;16.322;2023-08-01T11:57:52;7.80;;;3.15;;
18265;SDS011;9259;48.194;16.322;2023-08-01T12:00:23;6.72;;;2.58;;
18265;SDS011;9259;48.194;16.322;2023-08-01T12:03:02;4.65;;;2.40;;
18265;SDS011;9259;48.194;16.322;2023-08-01T12:05:31;4.35;;;2.30;;
18265;SDS011;9259;48.194;16.322;2023-08-01T12:08:09;5.20;;;2.55;;
18265;SDS011;9259;48.194;16.322;2023-08-01T12:10:38;4.68;;;2.33;;
18265;SDS011;9259;48.194;16.322;2023-08-01T12:13:07;5.07;;;2.70;;
18265;SDS011;9259;48.194;16.322;2023-08-01T12:15:49;7.03;;;2.70;;
18265;SDS011;9259;48.194;16.322;2023-08-01T12:18:20;12.15;;;2.78;;
18265;SDS011;9259;48.194;16.322;2023-08-01T12:20:49;7.13;;;2.80;;
18265;SDS011;9259;48.194;16.322;2023-08-01T12:23:17;8.02;;;3.10;;
18265;SDS011;9259;48.194;16.322;2023-08-01T12:25:46;7.38;;;3.70;;
18265;SDS011;9259;48.194;16.322;2023-08-01T12:28:15;4.93;;;2.80;;
18265;SDS011;9259;48.194;16.322;2023-08-01T12:30:43;6.13;;;2.83;;
18265;SDS011;9259;48.194;16.322;2023-08-01T12:33:13;4.50;;;2.05;;
18265;SDS011;9259;48.194;16.322;2023-08-01T12:35:41;7.95;;;2.70;;
18265;SDS011;9259;48.194;16.322;2023-08-01T12:38:09;7.55;;;2.83;;
18265;SDS011;9259;48.194;16.322;2023-08-01T12:40:37;5.38;;;2.97;;
18265;SDS011;9259;48.194;16.322;2023-08-01T12:43:05;5.93;;;2.92;;
18265;SDS011;9259;48.194;16.322;2023-08-01T12:45:33;5.95;;;3.00;;
18265;SDS011;9259;48.194;16.322;2023-08-01T12:48:01;8.35;;;3.72;;
18265;SDS011;9259;48.194;16.322;2023-08-01T12:50:30;5.90;;;3.30;;
18265;SDS011;9259;48.194;16.322;2023-08-01T12:52:59;7.00;;;3.65;;
18265;SDS011;9259;48.194;16.322;2023-08-01T12:55:27;5.72;;;3.00;;
18265;SDS011;9259;48.194;16.322;2023-08-01T12:57:55;6.07;;;3.00;;
18265;SDS011;9259;48.194;16.322;2023-08-01T13:00:23;6.85;;;3.70;;
18265;SDS011;9259;48.194;16.322;2023-08-01T13:02:51;4.63;;;2.83;;
18265;SDS011;9259;48.194;16.322;2023-08-01T13:05:19;6.55;;;2.92;;
18265;SDS011;9259;48.194;16.322;2023-08-01T13:07:49;5.57;;;3.00;;
18265;SDS011;9259;48.194;16.322;2023-08-01T13:10:17;7.07;;;3.25;;
18265;SDS011;9259;48.194;16.322;2023-08-01T13:12:45;6.50;;;3.35;;
18265;SDS011;9259;48.194;16.322;2023-08-01T13:15:13;7.35;;;3.22;;
18265;SDS011;9259;48.194;16.322;2023-08-01T13:17:41;4.63;;;2.47;;
18265;SDS011;9259;48.194;16.322;2023-08-01T13:20:09;6.53;;;2.67;;
18265;SDS011;9259;48.194;16.322;2023-08-01T13:22:38;6.70;;;2.83;;
18265;SDS011;9259;48.194;16.322;2023-08-01T13:25:07;6.95;;;3.05;;
18265;SDS011;9259;48.194;16.322;2023-08-01T13:27:36;6.05;;;3.20;;
18265;SDS011;9259;48.194;16.322;2023-08-01T13:30:04;6.20;;;2.85;;
18265;SDS011;9259;48.194;16.322;2023-08-01T13:32:33;9.52;;;4.03;;
18265;SDS011;9259;48.194;16.322;2023-08-01T13:35:02;10.38;;;3.50;;
18265;SDS011;9259;48.194;16.322;2023-08-01T13:37:30;5.60;;;2.72;;
18265;SDS011;9259;48.194;16.322;2023-08-01T13:39:58;6.80;;;3.15;;
18265;SDS011;9259;48.194;16.322;2023-08-01T13:42:28;6.43;;;2.85;;
18265;SDS011;9259;48.194;16.322;2023-08-01T13:44:56;8.25;;;3.33;;
18265;SDS011;9259;48.194;16.322;2023-08-01T13:47:26;5.85;;;3.50;;
18265;SDS011;9259;48.194;16.322;2023-08-01T13:49:54;10.77;;;4.18;;
18265;SDS011;9259;48.194;16.322;2023-08-01T13:52:22;8.90;;;4.15;;
18265;SDS011;9259;48.194;16.322;2023-08-01T13:54:50;8.60;;;3.95;;
18265;SDS011;9259;48.194;16.322;2023-08-01T13:57:18;12.85;;;4.45;;
18265;SDS011;9259;48.194;16.322;2023-08-01T13:59:47;11.23;;;4.05;;
18265;SDS011;9259;48.194;16.322;2023-08-01T14:02:15;9.07;;;4.10;;
18265;SDS011;9259;48.194;16.322;2023-08-01T14:04:43;10.68;;;4.13;;
18265;SDS011;9259;48.194;16.322;2023-08-01T14:07:11;9.85;;;4.57;;
18265;SDS011;9259;48.194;16.322;2023-08-01T14:09:41;8.40;;;4.00;;
18265;SDS011;9259;48.194;16.322;2023-08-01T14:12:09;10.88;;;4.20;;
18265;SDS011;9259;48.194;16.322;2023-08-01T14:14:37;10.05;;;4.30;;
18265;SDS011;9259;48.194;16.322;2023-08-01T14:17:07;10.07;;;4.32;;
18265;SDS011;9259;48.194;16.322;2023-08-01T14:19:35;8.90;;;3.65;;
18265;SDS011;9259;48.194;16.322;2023-08-01T14:22:03;7.95;;;4.10;;
18265;SDS011;9259;48.194;16.322;2023-08-01T14:24:31;13.90;;;4.18;;
18265;SDS011;9259;48.194;16.322;2023-08-01T14:26:59;9.70;;;4.30;;
18265;SDS011;9259;48.194;16.322;2023-08-01T14:29:28;10.02;;;3.83;;
18265;SDS011;9259;48.194;16.322;2023-08-01T14:31:56;10.15;;;3.70;;
18265;SDS011;9259;48.194;16.322;2023-08-01T14:34:25;8.15;;;4.10;;
18265;SDS011;9259;48.194;16.322;2023-08-01T14:36:53;8.45;;;3.50;;
18265;SDS011;9259;48.194;16.322;2023-08-01T14:39:21;9.45;;;4.13;;
18265;SDS011;9259;48.194;16.322;2023-08-01T14:41:49;9.35;;;4.32;;
18265;SDS011;9259;48.194;16.322;2023-08-01T14:44:17;9.52;;;4.43;;
18265;SDS011;9259;48.194;16.322;2023-08-01T14:46:46;9.75;;;4.55;;
18265;SDS011;9259;48.194;16.322;2023-08-01T14:49:14;8.95;;;3.85;;
18265;SDS011;9259;48.194;16.322;2023-08-01T14:51:43;8.63;;;3.65;;
18265;SDS011;9259;48.194;16.322;2023-08-01T14:54:11;10.40;;;3.60;;
18265;SDS011;9259;48.194;16.322;2023-08-01T14:56:39;10.27;;;4.40;;
18265;SDS011;9259;48.194;16.322;2023-08-01T14:59:07;11.32;;;4.00;;